sensor_id;sensor_type;location;lat;lon;timestamp;pressure;altitude;pressure_sealevel;temperature;humidity
72465;BME280;60471;52.150;4.508;2024-03-23T00:55:07;100829.34;;;9.14;100.00
72465;BME280;60471;52.150;4.508;2024-03-23T00:57:33;100821.53;;;9.13;100.00
72465;BME280;60471;52.150;4.508;2024-03-23T01:00:00;100815.59;;;9.08;100.00
72465;BME280;60471;52.150;4.508;2024-03-23T01:02:26;100821.72;;;9.08;100.00
72465;BME280;60471;52.150;4.508;2024-03-23T01:04:52;100814.03;;;9.24;100.00
72465;BME280;60471;52.150;4.508;2024-03-23T01:07:18;100812.03;;;9.29;100.00
72465;BME280;60471;52.150;4.508;2024-03-23T01:09:44;100809.88;;;9.39;100.00
72465;BME280;60471;52.150;4.508;2024-03-23T01:12:11;100794.00;;;9.40;100.00
72465;BME280;60471;52.150;4.508;2024-03-23T01:14:37;100804.28;;;9.46;100.00
72465;BME280;60471;52.150;4.508;2024-03-23T01:17:03;100799.19;;;9.42;100.00
72465;BME280;60471;52.150;4.508;2024-03-23T01:19:29;100797.16;;;9.48;100.00
72465;BME280;60471;52.150;4.508;2024-03-23T01:21:56;100793.59;;;9.49;100.00
72465;BME280;60471;52.150;4.508;2024-03-23T01:24:22;100794.78;;;9.42;100.00
72465;BME280;60471;52.150;4.508;2024-03-23T01:26:48;100794.94;;;9.39;100.00
72465;BME280;60471;52.150;4.508;2024-03-23T01:29:14;100802.56;;;9.45;100.00
72465;BME280;60471;52.150;4.508;2024-03-23T01:31:41;100800.97;;;9.41;100.00
72465;BME280;60471;52.150;4.508;2024-03-23T01:34:07;100803.50;;;9.44;100.00
72465;BME280;60471;52.150;4.508;2024-03-23T01:36:33;100801.25;;;9.35;100.00
72465;BME280;60471;52.150;4.508;2024-03-23T01:38:59;100801.75;;;9.43;100.00
72465;BME280;60471;52.150;4.508;2024-03-23T01:41:26;100796.84;;;9.36;100.00
72465;BME280;60471;52.150;4.508;2024-03-23T01:43:54;100787.50;;;9.28;100.00
72465;BME280;60471;52.150;4.508;2024-03-23T01:46:21;100795.13;;;9.35;100.00
72465;BME280;60471;52.150;4.508;2024-03-23T01:48:47;100781.22;;;9.31;100.00
72465;BME280;60471;52.150;4.508;2024-03-23T01:51:14;100785.38;;;9.37;100.00
72465;BME280;60471;52.150;4.508;2024-03-23T01:53:40;100788.34;;;9.29;100.00
72465;BME280;60471;52.150;4.508;2024-03-23T01:56:07;100776.50;;;9.19;100.00
72465;BME280;60471;52.150;4.508;2024-03-23T01:58:33;100775.91;;;9.33;100.00
72465;BME280;60471;52.150;4.508;2024-03-23T02:00:59;100777.97;;;9.26;100.00
72465;BME280;60471;52.150;4.508;2024-03-23T02:03:27;100777.22;;;9.22;100.00
72465;BME280;60471;52.150;4.508;2024-03-23T02:05:54;100778.09;;;9.23;100.00
72465;BME280;60471;52.150;4.508;2024-03-23T02:08:22;100773.00;;;9.18;100.00
72465;BME280;60471;52.150;4.508;2024-03-23T02:10:50;100769.06;;;9.28;100.00
72465;BME280;60471;52.150;4.508;2024-03-23T02:13:18;100764.94;;;9.23;100.00
72465;BME280;60471;52.150;4.508;2024-03-23T02:15:45;100764.53;;;9.12;100.00
72465;BME280;60471;52.150;4.508;2024-03-23T02:18:11;100757.22;;;9.18;100.00
72465;BME280;60471;52.150;4.508;2024-03-23T02:20:38;100761.38;;;9.04;100.00
72465;BME280;60471;52.150;4.508;2024-03-23T02:23:04;100750.47;;;9.13;100.00
72465;BME280;60471;52.150;4.508;2024-03-23T02:25:34;100758.22;;;9.16;100.00
72465;BME280;60471;52.150;4.508;2024-03-23T02:28:00;100743.34;;;9.15;100.00
72465;BME280;60471;52.150;4.508;2024-03-23T02:30:26;100745.91;;;9.16;100.00
72465;BME280;60471;52.150;4.508;2024-03-23T02:32:53;100744.50;;;9.28;100.00
72465;BME280;60471;52.150;4.508;2024-03-23T02:35:19;100740.50;;;9.19;100.00
72465;BME280;60471;52.150;4.508;2024-03-23T02:37:46;100737.72;;;9.22;100.00
72465;BME280;60471;52.150;4.508;2024-03-23T02:40:15;100734.66;;;9.13;100.00
72465;BME280;60471;52.150;4.508;2024-03-23T02:42:43;100738.22;;;9.12;100.00
72465;BME280;60471;52.150;4.508;2024-03-23T02:45:09;100735.69;;;9.09;100.00
72465;BME280;60471;52.150;4.508;2024-03-23T02:47:35;100740.09;;;9.08;100.00
72465;BME280;60471;52.150;4.508;2024-03-23T02:50:01;100726.31;;;9.03;100.00
72465;BME280;60471;52.150;4.508;2024-03-23T02:52:28;100725.47;;;9.03;100.00
72465;BME280;60471;52.150;4.508;2024-03-23T02:54:54;100728.47;;;8.93;100.00
72465;BME280;60471;52.150;4.508;2024-03-23T02:57:20;100721.75;;;9.07;100.00
72465;BME280;60471;52.150;4.508;2024-03-23T02:59:46;100726.16;;;9.06;100.00
72465;BME280;60471;52.150;4.508;2024-03-23T03:02:13;100726.78;;;8.92;100.00
72465;BME280;60471;52.150;4.508;2024-03-23T03:04:39;100721.97;;;9.02;100.00
72465;BME280;60471;52.150;4.508;2024-03-23T03:07:05;100728.25;;;9.18;100.00
72465;BME280;60471;52.150;4.508;2024-03-23T03:09:32;100722.91;;;9.01;100.00
72465;BME280;60471;52.150;4.508;2024-03-23T03:11:58;100720.66;;;9.12;100.00
72465;BME280;60471;52.150;4.508;2024-03-23T03:14:25;100725.09;;;9.10;100.00
72465;BME280;60471;52.150;4.508;2024-03-23T03:16:51;100714.72;;;9.07;100.00
72465;BME280;60471;52.150;4.508;2024-03-23T03:19:17;100719.25;;;9.04;100.00
72465;BME280;60471;52.150;4.508;2024-03-23T03:21:43;100726.84;;;8.91;100.00
72465;BME280;60471;52.150;4.508;2024-03-23T03:24:09;100709.31;;;8.90;100.00
72465;BME280;60471;52.150;4.508;2024-03-23T03:26:35;100724.97;;;8.73;100.00
72465;BME280;60471;52.150;4.508;2024-03-23T03:29:02;100717.34;;;8.66;100.00
72465;BME280;60471;52.150;4.508;2024-03-23T03:31:29;100720.94;;;8.64;100.00
72465;BME280;60471;52.150;4.508;2024-03-23T03:33:55;100711.81;;;8.52;100.00
72465;BME280;60471;52.150;4.508;2024-03-23T03:36:21;100721.94;;;8.61;100.00
72465;BME280;60471;52.150;4.508;2024-03-23T03:38:47;100706.41;;;8.55;100.00
72465;BME280;60471;52.150;4.508;2024-03-23T03:41:13;100708.25;;;8.53;100.00
72465;BME280;60471;52.150;4.508;2024-03-23T03:43:40;100706.13;;;8.41;100.00
72465;BME280;60471;52.150;4.508;2024-03-23T03:46:06;100701.94;;;8.57;100.00
72465;BME280;60471;52.150;4.508;2024-03-23T03:48:34;100695.56;;;8.63;100.00
72465;BME280;60471;52.150;4.508;2024-03-23T03:51:00;100710.22;;;8.48;100.00
72465;BME280;60471;52.150;4.508;2024-03-23T03:53:26;100695.41;;;8.46;100.00
72465;BME280;60471;52.150;4.508;2024-03-23T03:55:52;100701.47;;;8.48;100.00
72465;BME280;60471;52.150;4.508;2024-03-23T03:58:18;100700.88;;;8.41;100.00
72465;BME280;60471;52.150;4.508;2024-03-23T04:00:45;100687.94;;;8.36;100.00
72465;BME280;60471;52.150;4.508;2024-03-23T04:03:11;100689.84;;;8.31;100.00
72465;BME280;60471;52.150;4.508;2024-03-23T04:05:37;100686.22;;;8.34;100.00
72465;BME280;60471;52.150;4.508;2024-03-23T04:08:05;100693.84;;;8.41;100.00
72465;BME280;60471;52.150;4.508;2024-03-23T04:10:33;100690.22;;;8.22;100.00
72465;BME280;60471;52.150;4.508;2024-03-23T04:12:59;100684.44;;;8.36;100.00
72465;BME280;60471;52.150;4.508;2024-03-23T04:15:25;100689.25;;;8.47;100.00
72465;BME280;60471;52.150;4.508;2024-03-23T04:17:51;100689.06;;;8.51;100.00
72465;BME280;60471;52.150;4.508;2024-03-23T04:20:17;100678.53;;;8.29;100.00
72465;BME280;60471;52.150;4.508;2024-03-23T04:22:44;100695.47;;;8.22;100.00
72465;BME280;60471;52.150;4.508;2024-03-23T04:25:10;100682.59;;;8.16;100.00
72465;BME280;60471;52.150;4.508;2024-03-23T04:27:37;100682.31;;;8.22;100.00
72465;BME280;60471;52.150;4.508;2024-03-23T04:30:04;100686.00;;;8.18;100.00
72465;BME280;60471;52.150;4.508;2024-03-23T04:32:38;100681.97;;;8.09;100.00
72465;BME280;60471;52.150;4.508;2024-03-23T04:35:04;100691.63;;;8.31;100.00
72465;BME280;60471;52.150;4.508;2024-03-23T04:37:40;100678.59;;;8.28;100.00
72465;BME280;60471;52.150;4.508;2024-03-23T04:40:09;100680.63;;;8.43;100.00
72465;BME280;60471;52.150;4.508;2024-03-23T04:42:37;100681.88;;;8.33;100.00
72465;BME280;60471;52.150;4.508;2024-03-23T04:45:04;100685.81;;;8.45;100.00
72465;BME280;60471;52.150;4.508;2024-03-23T04:47:32;100685.88;;;8.21;100.00
72465;BME280;60471;52.150;4.508;2024-03-23T04:49:58;100677.25;;;8.18;100.00
72465;BME280;60471;52.150;4.508;2024-03-23T04:52:24;100678.91;;;8.42;100.00
72465;BME280;60471;52.150;4.508;2024-03-23T04:54:50;100693.63;;;8.46;100.00
72465;BME280;60471;52.150;4.508;2024-03-23T04:57:17;100693.31;;;8.32;100.00
72465;BME280;60471;52.150;4.508;2024-03-23T04:59:43;100691.06;;;8.45;100.00
72465;BME280;60471;52.150;4.508;2024-03-23T05:02:09;100696.22;;;8.48;100.00
72465;BME280;60471;52.150;4.508;2024-03-23T05:04:35;100681.94;;;8.53;100.00
72465;BME280;60471;52.150;4.508;2024-03-23T05:07:03;100683.97;;;8.25;100.00
72465;BME280;60471;52.150;4.508;2024-03-23T05:09:30;100694.56;;;8.45;100.00
72465;BME280;60471;52.150;4.508;2024-03-23T05:11:56;100678.06;;;8.41;100.00
72465;BME280;60471;52.150;4.508;2024-03-23T05:14:23;100686.03;;;8.60;100.00
72465;BME280;60471;52.150;4.508;2024-03-23T05:16:49;100693.13;;;8.38;100.00
72465;BME280;60471;52.150;4.508;2024-03-23T05:19:15;100676.50;;;8.58;100.00
72465;BME280;60471;52.150;4.508;2024-03-23T05:21:41;100695.31;;;8.49;100.00
72465;BME280;60471;52.150;4.508;2024-03-23T05:24:07;100682.31;;;8.44;100.00
72465;BME280;60471;52.150;4.508;2024-03-23T05:26:34;100699.72;;;8.48;100.00
72465;BME280;60471;52.150;4.508;2024-03-23T05:29:02;100691.44;;;8.35;100.00
72465;BME280;60471;52.150;4.508;2024-03-23T05:31:31;100685.56;;;8.29;100.00
72465;BME280;60471;52.150;4.508;2024-03-23T05:33:57;100688.00;;;8.33;100.00
72465;BME280;60471;52.150;4.508;2024-03-23T05:36:23;100682.03;;;8.30;100.00
72465;BME280;60471;52.150;4.508;2024-03-23T05:38:50;100674.19;;;8.28;100.00
72465;BME280;60471;52.150;4.508;2024-03-23T05:41:16;100690.97;;;8.04;100.00
72465;BME280;60471;52.150;4.508;2024-03-23T05:43:42;100719.81;;;8.05;100.00
72465;BME280;60471;52.150;4.508;2024-03-23T05:46:09;100682.22;;;8.03;100.00
72465;BME280;60471;52.150;4.508;2024-03-23T05:48:35;100686.25;;;8.12;100.00
72465;BME280;60471;52.150;4.508;2024-03-23T05:51:02;100678.00;;;8.21;100.00
72465;BME280;60471;52.150;4.508;2024-03-23T05:53:29;100676.66;;;7.89;100.00
72465;BME280;60471;52.150;4.508;2024-03-23T05:56:03;100674.88;;;8.11;100.00
72465;BME280;60471;52.150;4.508;2024-03-23T05:58:29;100666.56;;;8.22;100.00
72465;BME280;60471;52.150;4.508;2024-03-23T06:01:00;100675.19;;;8.04;100.00
72465;BME280;60471;52.150;4.508;2024-03-23T06:03:28;100680.03;;;7.93;100.00
72465;BME280;60471;52.150;4.508;2024-03-23T06:05:55;100684.22;;;7.97;100.00
72465;BME280;60471;52.150;4.508;2024-03-23T06:08:22;100676.47;;;8.16;100.00
72465;BME280;60471;52.150;4.508;2024-03-23T06:10:48;100676.16;;;8.23;100.00
72465;BME280;60471;52.150;4.508;2024-03-23T06:13:16;100676.41;;;8.17;100.00
72465;BME280;60471;52.150;4.508;2024-03-23T06:15:43;100669.38;;;8.18;100.00
72465;BME280;60471;52.150;4.508;2024-03-23T06:18:09;100675.78;;;8.32;100.00
72465;BME280;60471;52.150;4.508;2024-03-23T06:20:35;100700.72;;;8.44;100.00
72465;BME280;60471;52.150;4.508;2024-03-23T06:23:01;100674.44;;;8.44;100.00
72465;BME280;60471;52.150;4.508;2024-03-23T06:25:29;100686.03;;;8.60;100.00
72465;BME280;60471;52.150;4.508;2024-03-23T06:27:56;100679.59;;;8.47;100.00
72465;BME280;60471;52.150;4.508;2024-03-23T06:30:24;100681.09;;;8.53;100.00
72465;BME280;60471;52.150;4.508;2024-03-23T06:32:52;100676.91;;;8.69;100.00
72465;BME280;60471;52.150;4.508;2024-03-23T06:35:19;100680.50;;;8.66;100.00
72465;BME280;60471;52.150;4.508;2024-03-23T06:37:45;100683.00;;;8.49;100.00
72465;BME280;60471;52.150;4.508;2024-03-23T06:40:12;100678.22;;;8.59;100.00
72465;BME280;60471;52.150;4.508;2024-03-23T06:42:38;100678.72;;;8.67;100.00
72465;BME280;60471;52.150;4.508;2024-03-23T06:45:05;100681.25;;;8.90;100.00
72465;BME280;60471;52.150;4.508;2024-03-23T06:47:32;100667.50;;;8.63;100.00
72465;BME280;60471;52.150;4.508;2024-03-23T06:49:59;100686.16;;;8.57;100.00
72465;BME280;60471;52.150;4.508;2024-03-23T06:52:30;100670.38;;;8.78;100.00
72465;BME280;60471;52.150;4.508;2024-03-23T06:54:57;100670.66;;;8.92;100.00
72465;BME280;60471;52.150;4.508;2024-03-23T06:57:23;100675.78;;;8.54;100.00
72465;BME280;60471;52.150;4.508;2024-03-23T06:59:50;100699.19;;;8.60;100.00
72465;BME280;60471;52.150;4.508;2024-03-23T07:02:16;100685.84;;;8.65;100.00
72465;BME280;60471;52.150;4.508;2024-03-23T07:04:42;100679.06;;;8.59;100.00
72465;BME280;60471;52.150;4.508;2024-03-23T07:07:09;100682.34;;;8.64;100.00
72465;BME280;60471;52.150;4.508;2024-03-23T07:09:35;100678.03;;;8.84;100.00
72465;BME280;60471;52.150;4.508;2024-03-23T07:12:03;100696.19;;;8.69;100.00
72465;BME280;60471;52.150;4.508;2024-03-23T07:14:30;100684.38;;;8.78;100.00
72465;BME280;60471;52.150;4.508;2024-03-23T07:16:56;100685.38;;;8.76;100.00
72465;BME280;60471;52.150;4.508;2024-03-23T07:19:22;100698.41;;;8.58;100.00
72465;BME280;60471;52.150;4.508;2024-03-23T07:21:50;100686.16;;;8.57;100.00
72465;BME280;60471;52.150;4.508;2024-03-23T07:24:16;100689.41;;;8.20;100.00
72465;BME280;60471;52.150;4.508;2024-03-23T07:26:42;100686.81;;;8.42;100.00
72465;BME280;60471;52.150;4.508;2024-03-23T07:29:09;100677.34;;;8.79;100.00
72465;BME280;60471;52.150;4.508;2024-03-23T07:31:36;100688.34;;;8.88;100.00
72465;BME280;60471;52.150;4.508;2024-03-23T07:34:02;100681.16;;;9.12;100.00
72465;BME280;60471;52.150;4.508;2024-03-23T07:36:28;100682.34;;;8.85;100.00
72465;BME280;60471;52.150;4.508;2024-03-23T07:38:54;100701.03;;;8.79;100.00
72465;BME280;60471;52.150;4.508;2024-03-23T07:41:21;100681.56;;;8.83;100.00
72465;BME280;60471;52.150;4.508;2024-03-23T07:43:48;100690.00;;;8.70;100.00
72465;BME280;60471;52.150;4.508;2024-03-23T07:46:15;100677.09;;;8.64;100.00
72465;BME280;60471;52.150;4.508;2024-03-23T07:48:42;100678.47;;;8.73;100.00
72465;BME280;60471;52.150;4.508;2024-03-23T07:51:10;100678.94;;;9.03;100.00
72465;BME280;60471;52.150;4.508;2024-03-23T07:53:43;100678.09;;;8.82;100.00
72465;BME280;60471;52.150;4.508;2024-03-23T07:56:12;100667.34;;;9.07;100.00
72465;BME280;60471;52.150;4.508;2024-03-23T07:58:38;100724.31;;;9.08;100.00
72465;BME280;60471;52.150;4.508;2024-03-23T08:01:08;100696.66;;;9.18;100.00
72465;BME280;60471;52.150;4.508;2024-03-23T08:03:37;100658.84;;;9.40;100.00
72465;BME280;60471;52.150;4.508;2024-03-23T08:06:18;100672.28;;;9.52;100.00
72465;BME280;60471;52.150;4.508;2024-03-23T08:08:47;100662.31;;;9.40;100.00
72465;BME280;60471;52.150;4.508;2024-03-23T08:11:14;100676.63;;;9.53;100.00
72465;BME280;60471;52.150;4.508;2024-03-23T08:13:42;100716.56;;;9.25;100.00
72465;BME280;60471;52.150;4.508;2024-03-23T08:16:10;100671.19;;;9.58;100.00
72465;BME280;60471;52.150;4.508;2024-03-23T08:18:37;100677.47;;;8.96;100.00
72465;BME280;60471;52.150;4.508;2024-03-23T08:21:05;100678.00;;;9.04;100.00
72465;BME280;60471;52.150;4.508;2024-03-23T08:23:33;100682.88;;;8.93;100.00
72465;BME280;60471;52.150;4.508;2024-03-23T08:26:09;100673.06;;;9.54;100.00
72465;BME280;60471;52.150;4.508;2024-03-23T08:28:37;100661.41;;;10.15;100.00
72465;BME280;60471;52.150;4.508;2024-03-23T08:31:06;100676.19;;;10.00;100.00
72465;BME280;60471;52.150;4.508;2024-03-23T08:33:34;100679.06;;;9.58;100.00
72465;BME280;60471;52.150;4.508;2024-03-23T08:36:08;100673.19;;;9.14;100.00
72465;BME280;60471;52.150;4.508;2024-03-23T08:38:38;100691.38;;;8.79;100.00
72465;BME280;60471;52.150;4.508;2024-03-23T08:41:06;100672.91;;;8.81;100.00
72465;BME280;60471;52.150;4.508;2024-03-23T08:43:36;100668.34;;;8.84;100.00
72465;BME280;60471;52.150;4.508;2024-03-23T08:46:14;100701.66;;;8.43;100.00
72465;BME280;60471;52.150;4.508;2024-03-23T08:48:45;100667.09;;;8.52;100.00
72465;BME280;60471;52.150;4.508;2024-03-23T08:51:16;100663.41;;;8.97;100.00
72465;BME280;60471;52.150;4.508;2024-03-23T08:53:43;100662.84;;;9.09;100.00
72465;BME280;60471;52.150;4.508;2024-03-23T08:56:10;100677.22;;;9.60;100.00
72465;BME280;60471;52.150;4.508;2024-03-23T08:58:38;100671.16;;;9.00;100.00
72465;BME280;60471;52.150;4.508;2024-03-23T09:01:12;100660.53;;;8.83;100.00
72465;BME280;60471;52.150;4.508;2024-03-23T09:03:39;100686.94;;;9.00;100.00
72465;BME280;60471;52.150;4.508;2024-03-23T09:06:09;100713.94;;;9.05;100.00
72465;BME280;60471;52.150;4.508;2024-03-23T09:08:37;100701.19;;;9.54;100.00
72465;BME280;60471;52.150;4.508;2024-03-23T09:11:04;100670.88;;;9.45;100.00
72465;BME280;60471;52.150;4.508;2024-03-23T09:13:35;100684.69;;;9.11;100.00
72465;BME280;60471;52.150;4.508;2024-03-23T09:16:03;100669.06;;;8.88;100.00
72465;BME280;60471;52.150;4.508;2024-03-23T09:18:33;100681.16;;;9.12;100.00
72465;BME280;60471;52.150;4.508;2024-03-23T09:21:01;100677.16;;;9.04;100.00
72465;BME280;60471;52.150;4.508;2024-03-23T09:23:28;100708.06;;;9.58;100.00
72465;BME280;60471;52.150;4.508;2024-03-23T09:25:54;100679.97;;;9.95;100.00
72465;BME280;60471;52.150;4.508;2024-03-23T09:28:21;100667.31;;;9.46;100.00
72465;BME280;60471;52.150;4.508;2024-03-23T09:30:48;100705.34;;;9.78;100.00
72465;BME280;60471;52.150;4.508;2024-03-23T09:33:14;100698.28;;;9.02;100.00
72465;BME280;60471;52.150;4.508;2024-03-23T09:35:41;100699.63;;;9.50;100.00
72465;BME280;60471;52.150;4.508;2024-03-23T09:38:09;100685.56;;;10.06;100.00
72465;BME280;60471;52.150;4.508;2024-03-23T09:40:40;100678.50;;;9.70;100.00
72465;BME280;60471;52.150;4.508;2024-03-23T09:43:10;100677.81;;;9.67;100.00
72465;BME280;60471;52.150;4.508;2024-03-23T09:45:40;100670.41;;;9.17;100.00
72465;BME280;60471;52.150;4.508;2024-03-23T09:48:08;100681.34;;;9.08;100.00
72465;BME280;60471;52.150;4.508;2024-03-23T09:50:42;100678.78;;;9.06;100.00
72465;BME280;60471;52.150;4.508;2024-03-23T09:53:12;100680.72;;;8.82;100.00
72465;BME280;60471;52.150;4.508;2024-03-23T09:55:43;100676.31;;;9.03;100.00
72465;BME280;60471;52.150;4.508;2024-03-23T09:58:18;100682.00;;;9.71;100.00
72465;BME280;60471;52.150;4.508;2024-03-23T10:00:44;100695.25;;;9.30;100.00
72465;BME280;60471;52.150;4.508;2024-03-23T10:03:11;100677.94;;;9.45;100.00
72465;BME280;60471;52.150;4.508;2024-03-23T10:05:37;100695.59;;;10.53;100.00
72465;BME280;60471;52.150;4.508;2024-03-23T10:10:42;100701.63;;;9.45;100.00
72465;BME280;60471;52.150;4.508;2024-03-23T10:13:09;100670.72;;;9.29;100.00
72465;BME280;60471;52.150;4.508;2024-03-23T10:15:36;100655.84;;;9.28;100.00
72465;BME280;60471;52.150;4.508;2024-03-23T10:18:19;100667.88;;;9.91;100.00
72465;BME280;60471;52.150;4.508;2024-03-23T10:20:51;100654.22;;;11.70;100.00
72465;BME280;60471;52.150;4.508;2024-03-23T10:23:33;100667.00;;;12.99;100.00
72465;BME280;60471;52.150;4.508;2024-03-23T10:26:19;100664.00;;;11.03;100.00
72465;BME280;60471;52.150;4.508;2024-03-23T10:28:54;100663.41;;;10.29;100.00
72465;BME280;60471;52.150;4.508;2024-03-23T10:31:23;100666.53;;;10.54;100.00
72465;BME280;60471;52.150;4.508;2024-03-23T10:33:50;100689.63;;;10.49;100.00
72465;BME280;60471;52.150;4.508;2024-03-23T10:36:17;100672.56;;;10.20;100.00
72465;BME280;60471;52.150;4.508;2024-03-23T10:38:46;100671.41;;;10.96;100.00
72465;BME280;60471;52.150;4.508;2024-03-23T10:41:13;100681.94;;;10.27;100.00
72465;BME280;60471;52.150;4.508;2024-03-23T10:43:39;100691.59;;;9.72;100.00
72465;BME280;60471;52.150;4.508;2024-03-23T10:46:06;100702.03;;;10.11;100.00
72465;BME280;60471;52.150;4.508;2024-03-23T10:48:32;100659.13;;;10.07;100.00
72465;BME280;60471;52.150;4.508;2024-03-23T10:50:59;100681.88;;;10.81;100.00
72465;BME280;60471;52.150;4.508;2024-03-23T10:53:27;100649.88;;;11.53;100.00
72465;BME280;60471;52.150;4.508;2024-03-23T10:55:56;100686.78;;;10.88;100.00
72465;BME280;60471;52.150;4.508;2024-03-23T10:58:37;100662.28;;;9.97;100.00
72465;BME280;60471;52.150;4.508;2024-03-23T11:01:05;100648.19;;;13.18;100.00
72465;BME280;60471;52.150;4.508;2024-03-23T11:03:38;100645.41;;;14.44;73.61
72465;BME280;60471;52.150;4.508;2024-03-23T11:06:06;100654.59;;;12.85;78.35
72465;BME280;60471;52.150;4.508;2024-03-23T11:08:38;100688.06;;;12.42;94.64
72465;BME280;60471;52.150;4.508;2024-03-23T11:11:18;100667.66;;;11.49;100.00
72465;BME280;60471;52.150;4.508;2024-03-23T11:13:49;100659.66;;;12.30;91.02
72465;BME280;60471;52.150;4.508;2024-03-23T11:16:22;100679.19;;;10.65;100.00
72465;BME280;60471;52.150;4.508;2024-03-23T11:18:50;100643.34;;;10.94;100.00
72465;BME280;60471;52.150;4.508;2024-03-23T11:21:51;100690.41;;;12.62;91.52
72465;BME280;60471;52.150;4.508;2024-03-23T11:24:20;100652.56;;;13.04;78.15
72465;BME280;60471;52.150;4.508;2024-03-23T11:26:48;100635.22;;;11.79;92.34
72465;BME280;60471;52.150;4.508;2024-03-23T11:29:16;100681.75;;;11.17;100.00
72465;BME280;60471;52.150;4.508;2024-03-23T11:31:47;100634.53;;;10.78;100.00
72465;BME280;60471;52.150;4.508;2024-03-23T11:34:18;100645.03;;;10.44;100.00
72465;BME280;60471;52.150;4.508;2024-03-23T11:36:48;100631.44;;;11.20;100.00
72465;BME280;60471;52.150;4.508;2024-03-23T11:39:20;100630.56;;;11.19;100.00
72465;BME280;60471;52.150;4.508;2024-03-23T11:41:53;100649.16;;;13.02;90.05
72465;BME280;60471;52.150;4.508;2024-03-23T11:44:21;100638.91;;;13.53;82.22
72465;BME280;60471;52.150;4.508;2024-03-23T11:47:07;100644.84;;;12.71;82.65
72465;BME280;60471;52.150;4.508;2024-03-23T11:49:34;100635.03;;;12.73;84.72
72465;BME280;60471;52.150;4.508;2024-03-23T11:52:07;100604.88;;;13.74;80.22
72465;BME280;60471;52.150;4.508;2024-03-23T11:54:36;100628.41;;;14.60;71.27
72465;BME280;60471;52.150;4.508;2024-03-23T11:57:08;100648.47;;;15.40;59.91
72465;BME280;60471;52.150;4.508;2024-03-23T11:59:39;100617.38;;;14.66;60.65
72465;BME280;60471;52.150;4.508;2024-03-23T12:02:10;100672.25;;;14.53;62.33
72465;BME280;60471;52.150;4.508;2024-03-23T12:04:38;100600.84;;;14.35;64.69
72465;BME280;60471;52.150;4.508;2024-03-23T12:07:18;100592.50;;;15.91;57.91
72465;BME280;60471;52.150;4.508;2024-03-23T12:10:04;100637.69;;;14.40;59.76
72465;BME280;60471;52.150;4.508;2024-03-23T12:12:32;100608.88;;;13.26;66.34
72465;BME280;60471;52.150;4.508;2024-03-23T12:15:05;100605.81;;;12.89;69.81
72465;BME280;60471;52.150;4.508;2024-03-23T12:17:34;100627.97;;;11.51;75.31
72465;BME280;60471;52.150;4.508;2024-03-23T12:20:01;100649.22;;;10.49;91.85
72465;BME280;60471;52.150;4.508;2024-03-23T12:22:28;100598.72;;;10.22;100.00
72465;BME280;60471;52.150;4.508;2024-03-23T12:24:56;100654.38;;;9.61;100.00
72465;BME280;60471;52.150;4.508;2024-03-23T12:27:23;100592.31;;;9.36;100.00
72465;BME280;60471;52.150;4.508;2024-03-23T12:29:49;100616.69;;;9.21;100.00
72465;BME280;60471;52.150;4.508;2024-03-23T12:32:15;100615.28;;;9.14;100.00
72465;BME280;60471;52.150;4.508;2024-03-23T12:34:42;100602.81;;;10.95;100.00
72465;BME280;60471;52.150;4.508;2024-03-23T12:37:08;100624.19;;;11.71;100.00
72465;BME280;60471;52.150;4.508;2024-03-23T12:39:38;100575.72;;;12.90;93.66
72465;BME280;60471;52.150;4.508;2024-03-23T12:42:05;100592.56;;;16.02;67.75
72465;BME280;60471;52.150;4.508;2024-03-23T12:44:31;100599.47;;;15.44;62.63
72465;BME280;60471;52.150;4.508;2024-03-23T12:46:57;100606.25;;;14.34;66.92
72465;BME280;60471;52.150;4.508;2024-03-23T12:49:23;100580.44;;;13.42;73.00
72465;BME280;60471;52.150;4.508;2024-03-23T12:51:54;100594.47;;;11.67;81.44
72465;BME280;60471;52.150;4.508;2024-03-23T12:54:22;100592.94;;;11.31;95.10
72465;BME280;60471;52.150;4.508;2024-03-23T12:56:48;100583.81;;;13.85;68.43
72465;BME280;60471;52.150;4.508;2024-03-23T12:59:14;100576.91;;;15.00;62.45
72465;BME280;60471;52.150;4.508;2024-03-23T13:01:42;100562.81;;;13.82;66.33
72465;BME280;60471;52.150;4.508;2024-03-23T13:04:09;100584.91;;;13.96;63.85
72465;BME280;60471;52.150;4.508;2024-03-23T13:06:36;100580.97;;;13.88;68.68
72465;BME280;60471;52.150;4.508;2024-03-23T13:09:03;100571.28;;;14.67;65.37
72465;BME280;60471;52.150;4.508;2024-03-23T13:11:30;100549.00;;;14.17;63.57
72465;BME280;60471;52.150;4.508;2024-03-23T13:13:56;100569.00;;;16.09;59.46
72465;BME280;60471;52.150;4.508;2024-03-23T13:16:22;100574.53;;;17.09;54.35
72465;BME280;60471;52.150;4.508;2024-03-23T13:18:49;100577.16;;;15.71;55.80
72465;BME280;60471;52.150;4.508;2024-03-23T13:21:15;100612.91;;;15.17;56.76
72465;BME280;60471;52.150;4.508;2024-03-23T13:23:42;100552.66;;;15.78;56.94
72465;BME280;60471;52.150;4.508;2024-03-23T13:26:13;100558.47;;;14.34;57.16
72465;BME280;60471;52.150;4.508;2024-03-23T13:28:40;100552.94;;;12.59;62.28
72465;BME280;60471;52.150;4.508;2024-03-23T13:31:07;100552.81;;;14.13;62.03
72465;BME280;60471;52.150;4.508;2024-03-23T13:33:34;100543.66;;;15.31;56.19
72465;BME280;60471;52.150;4.508;2024-03-23T13:36:00;100522.19;;;14.60;56.22
72465;BME280;60471;52.150;4.508;2024-03-23T13:38:27;100556.44;;;15.26;56.08
72465;BME280;60471;52.150;4.508;2024-03-23T13:40:59;100535.16;;;16.91;53.28
72465;BME280;60471;52.150;4.508;2024-03-23T13:43:26;100566.78;;;16.03;53.09
72465;BME280;60471;52.150;4.508;2024-03-23T13:45:58;100554.28;;;16.27;52.45
72465;BME280;60471;52.150;4.508;2024-03-23T13:48:27;100558.63;;;14.70;54.62
72465;BME280;60471;52.150;4.508;2024-03-23T13:51:04;100565.91;;;11.74;82.78